createdAt,value
2022-08-14T00:01:50.145Z,5.20
2022-08-14T00:04:35.795Z,4.75
2022-08-14T00:07:11.246Z,3.70
2022-08-14T00:09:39.927Z,4.97
2022-08-14T00:12:33.057Z,5.88
2022-08-14T00:15:03.264Z,5.35
2022-08-14T00:17:31.353Z,5.15
2022-08-14T00:20:08.155Z,4.65
2022-08-14T00:22:56.495Z,5.60
2022-08-14T00:25:22.389Z,4.43
2022-08-14T00:27:49.373Z,4.20
2022-08-14T00:30:21.463Z,6.05
2022-08-14T00:33:00.709Z,5.30
2022-08-14T00:36:34.272Z,5.13
2022-08-14T00:38:17.721Z,4.03
2022-08-14T00:40:46.342Z,5.22
2022-08-14T00:43:15.011Z,4.82
2022-08-14T00:45:42.877Z,5.18
2022-08-14T00:48:34.543Z,5.28
2022-08-14T00:51:08.868Z,6.07
2022-08-14T00:53:38.427Z,6.25
2022-08-14T00:56:08.414Z,9.63
2022-08-14T00:58:38.987Z,5.28
2022-08-14T01:01:14.606Z,6.80
2022-08-14T01:03:44.795Z,8.63
2022-08-14T01:06:18.468Z,5.85
2022-08-14T01:08:57.674Z,7.45
2022-08-14T01:11:35.365Z,6.25
2022-08-14T01:14:04.937Z,10.93
2022-08-14T01:16:52.849Z,7.07
2022-08-14T01:19:39.057Z,7.32
2022-08-14T01:22:10.465Z,5.80
2022-08-14T01:24:43.532Z,6.85
2022-08-14T01:27:18.620Z,5.32
2022-08-14T01:30:03.265Z,7.10
2022-08-14T01:32:35.622Z,5.97
2022-08-14T01:35:19.904Z,4.07
2022-08-14T01:37:57.046Z,4.95
2022-08-14T01:40:36.985Z,8.65
2022-08-14T01:43:18.577Z,5.63
2022-08-14T01:46:05.703Z,3.67
2022-08-14T01:48:37.004Z,4.63
2022-08-14T01:51:18.339Z,8.13
2022-08-14T01:53:54.810Z,5.68
2022-08-14T01:56:32.056Z,4.65
2022-08-14T01:59:20.597Z,5.32
2022-08-14T02:01:58.198Z,7.03
2022-08-14T02:04:54.775Z,4.28
2022-08-14T02:07:34.189Z,5.75
2022-08-14T02:10:12.900Z,4.95
2022-08-14T02:12:42.624Z,6.68
2022-08-14T02:15:10.819Z,3.85
2022-08-14T02:17:38.265Z,6.00
2022-08-14T02:20:08.577Z,4.75
2022-08-14T02:22:47.269Z,5.18
2022-08-14T02:25:16.747Z,4.72
2022-08-14T02:28:25.584Z,4.07
2022-08-14T02:30:33.890Z,7.97
2022-08-14T02:33:01.622Z,7.80
2022-08-14T02:35:32.767Z,5.90
2022-08-14T02:38:00.930Z,7.32
2022-08-14T02:40:33.823Z,6.50
2022-08-14T02:43:05.530Z,8.27
2022-08-14T02:45:38.591Z,4.07
2022-08-14T02:49:01.953Z,8.60
2022-08-14T02:51:01.332Z,5.63
2022-08-14T02:53:31.309Z,8.93
2022-08-14T02:56:02.992Z,5.07
2022-08-14T02:58:33.451Z,4.78
2022-08-14T03:01:01.354Z,7.82
2022-08-14T03:03:31.738Z,4.97
2022-08-14T03:06:04.654Z,6.57
2022-08-14T03:08:33.601Z,6.63
2022-08-14T03:11:07.709Z,6.38
2022-08-14T03:13:36.421Z,7.18
2022-08-14T03:16:09.296Z,6.53
2022-08-14T03:18:52.617Z,8.55
2022-08-14T03:21:23.651Z,6.57
2022-08-14T03:23:57.055Z,6.83
2022-08-14T03:26:30.247Z,8.23
2022-08-14T03:29:01.004Z,6.65
2022-08-14T03:31:30.040Z,6.30
2022-08-14T03:34:00.160Z,7.35
2022-08-14T03:37:37.814Z,7.45
2022-08-14T03:39:22.035Z,6.80
2022-08-14T03:41:52.909Z,5.68
2022-08-14T03:45:20.165Z,6.18
2022-08-14T03:47:07.012Z,5.70
2022-08-14T03:49:40.397Z,6.45
2022-08-14T03:52:38.530Z,10.70
2022-08-14T03:54:59.197Z,6.78
2022-08-14T03:57:27.104Z,6.90
2022-08-14T03:59:54.368Z,11.13
2022-08-14T04:02:32.470Z,7.13
2022-08-14T04:05:11.711Z,7.03
2022-08-14T04:07:49.893Z,8.38
2022-08-14T04:10:32.057Z,6.65
2022-08-14T04:13:04.527Z,5.97
2022-08-14T04:15:56.209Z,5.38
2022-08-14T04:18:21.989Z,7.32
2022-08-14T04:20:54.809Z,3.75
2022-08-14T04:23:29.936Z,9.80
2022-08-14T04:26:08.210Z,9.35
2022-08-14T04:29:05.258Z,5.63
2022-08-14T04:32:57.640Z,5.05
2022-08-14T04:34:20.618Z,5.50
2022-08-14T04:37:12.759Z,5.65
2022-08-14T04:39:58.732Z,8.07
2022-08-14T04:42:47.281Z,6.85
2022-08-14T04:45:20.997Z,5.45
2022-08-14T04:48:06.839Z,8.15
2022-08-14T04:50:44.812Z,10.35
2022-08-14T04:53:23.250Z,15.50
2022-08-14T04:55:53.997Z,7.82
2022-08-14T04:58:32.961Z,5.85
2022-08-14T05:01:03.634Z,6.32
2022-08-14T05:03:33.325Z,16.38
2022-08-14T05:06:03.239Z,12.05
2022-08-14T05:08:50.419Z,12.10
2022-08-14T05:11:19.926Z,7.60
2022-08-14T05:14:16.949Z,7.53
2022-08-14T05:16:34.611Z,9.75
2022-08-14T05:19:25.216Z,6.82
2022-08-14T05:21:56.985Z,5.70
2022-08-14T05:24:28.775Z,6.35
2022-08-14T05:26:55.998Z,6.78
2022-08-14T05:29:23.585Z,9.95
2022-08-14T05:31:57.281Z,6.95
2022-08-14T05:34:31.986Z,8.02
2022-08-14T05:37:03.317Z,9.63
2022-08-14T05:39:31.642Z,6.85
2022-08-14T05:42:00.646Z,6.90
2022-08-14T05:44:30.647Z,9.32
2022-08-14T05:46:58.737Z,7.72
2022-08-14T05:49:32.854Z,7.18
2022-08-14T05:52:02.212Z,6.70
2022-08-14T05:54:35.246Z,7.25
2022-08-14T05:57:06.830Z,9.80
2022-08-14T05:59:38.733Z,7.53
2022-08-14T06:02:11.229Z,7.38
2022-08-14T06:04:39.518Z,8.43
2022-08-14T06:07:06.893Z,11.25
2022-08-14T06:09:35.892Z,9.60
2022-08-14T06:12:10.643Z,8.02
2022-08-14T06:14:39.517Z,9.35
2022-08-14T06:17:06.891Z,9.95
2022-08-14T06:19:33.910Z,10.55
2022-08-14T06:22:01.715Z,7.15
2022-08-14T06:24:30.752Z,7.45
2022-08-14T06:27:04.527Z,9.23
2022-08-14T06:29:34.918Z,8.82
2022-08-14T06:32:38.478Z,7.68
2022-08-14T06:35:02.225Z,9.95
2022-08-14T06:37:46.897Z,7.88
2022-08-14T06:40:28.320Z,7.22
2022-08-14T06:43:00.013Z,10.83
2022-08-14T06:45:31.242Z,9.10
2022-08-14T06:47:59.182Z,10.25
2022-08-14T06:50:30.063Z,8.88
2022-08-14T06:52:58.953Z,12.55
2022-08-14T06:55:28.135Z,10.20
2022-08-14T06:57:57.506Z,8.40
2022-08-14T07:00:30.743Z,9.93
2022-08-14T07:03:17.771Z,8.77
2022-08-14T07:05:55.819Z,9.50
2022-08-14T07:08:31.825Z,8.05
2022-08-14T07:11:04.106Z,9.38
2022-08-14T07:13:31.520Z,9.20
2022-08-14T07:16:00.631Z,10.75
2022-08-14T07:18:30.463Z,9.43
2022-08-14T07:20:59.371Z,8.57
2022-08-14T07:23:27.174Z,8.60
2022-08-14T07:25:56.478Z,8.02
2022-08-14T07:28:43.258Z,9.48
2022-08-14T07:31:12.376Z,10.02
2022-08-14T07:33:43.638Z,10.07
2022-08-14T07:36:27.748Z,7.20
2022-08-14T07:39:03.210Z,8.27
2022-08-14T07:41:39.789Z,7.65
2022-08-14T07:44:32.162Z,9.18
2022-08-14T07:46:58.698Z,7.28
2022-08-14T07:49:26.340Z,7.15
2022-08-14T07:51:53.429Z,12.90
2022-08-14T07:54:23.521Z,7.72
2022-08-14T07:56:59.985Z,9.60
2022-08-14T07:59:41.949Z,5.72
2022-08-14T08:02:17.127Z,7.57
2022-08-14T08:04:54.923Z,6.20
2022-08-14T08:07:29.439Z,6.43
2022-08-14T08:09:59.683Z,7.75
2022-08-14T08:12:31.224Z,7.03
2022-08-14T08:15:05.915Z,7.10
2022-08-14T08:17:42.319Z,8.30
2022-08-14T08:20:27.239Z,6.40
2022-08-14T08:23:00.557Z,4.75
2022-08-14T08:25:39.537Z,5.30
2022-08-14T08:28:21.828Z,6.80
2022-08-14T08:30:56.863Z,4.25
2022-08-14T08:33:37.290Z,4.18
2022-08-14T08:36:12.640Z,7.10
2022-08-14T08:39:16.794Z,5.97
2022-08-14T08:41:49.268Z,7.45
2022-08-14T08:44:32.062Z,4.53
2022-08-14T08:47:05.925Z,4.78
2022-08-14T08:49:48.396Z,4.20
2022-08-14T08:52:25.012Z,6.97
2022-08-14T08:54:56.132Z,4.70
2022-08-14T08:57:24.295Z,6.32
2022-08-14T08:59:54.061Z,6.47
2022-08-14T09:02:22.659Z,5.70
2022-08-14T09:07:28.487Z,6.90
2022-08-14T09:09:58.954Z,6.35
2022-08-14T09:12:32.491Z,4.40
2022-08-14T09:15:11.631Z,4.85
2022-08-14T09:17:42.769Z,4.07
2022-08-14T09:20:12.667Z,6.45
2022-08-14T09:22:47.896Z,5.10
2022-08-14T09:25:19.998Z,7.10
2022-08-14T09:28:06.672Z,4.90
2022-08-14T09:30:37.238Z,4.03
2022-08-14T09:33:15.661Z,3.70
2022-08-14T09:36:04.762Z,4.50
2022-08-14T09:38:46.959Z,3.38
2022-08-14T09:44:27.411Z,3.55
2022-08-14T09:46:55.946Z,3.28
2022-08-14T09:49:40.608Z,5.22
2022-08-14T09:52:23.837Z,3.90
2022-08-14T09:55:00.572Z,2.92
2022-08-14T09:57:31.042Z,2.58
2022-08-14T09:59:58.874Z,5.03
2022-08-14T10:02:31.119Z,2.85
2022-08-14T10:05:13.125Z,4.68
2022-08-14T10:07:53.778Z,4.05
2022-08-14T10:10:43.208Z,4.72
2022-08-14T10:13:26.773Z,2.67
2022-08-14T10:16:00.176Z,2.10
2022-08-14T10:18:28.555Z,5.03
2022-08-14T10:21:00.740Z,5.03
2022-08-14T10:23:38.924Z,4.15
2022-08-14T10:26:11.930Z,3.60
2022-08-14T10:29:19.024Z,3.63
2022-08-14T10:31:44.770Z,9.15
2022-08-14T10:34:18.532Z,2.03
2022-08-14T10:36:50.064Z,2.20
2022-08-14T10:39:31.495Z,2.13
2022-08-14T10:42:16.324Z,1.90
2022-08-14T10:44:49.086Z,3.05
2022-08-14T10:47:39.476Z,3.05
2022-08-14T10:50:12.074Z,3.58
2022-08-14T10:52:42.581Z,2.92
2022-08-14T10:55:16.210Z,1.83
2022-08-14T10:57:52.493Z,2.75
2022-08-14T11:00:29.853Z,1.67
2022-08-14T11:03:09.441Z,1.40
2022-08-14T11:05:47.375Z,2.13
2022-08-14T11:08:17.708Z,2.00
2022-08-14T11:10:57.176Z,1.90
2022-08-14T11:13:28.904Z,4.93
2022-08-14T11:16:03.223Z,2.13
2022-08-14T11:18:40.192Z,1.88
2022-08-14T11:21:08.238Z,1.60
2022-08-14T11:23:40.183Z,3.42
2022-08-14T11:26:11.272Z,2.58
2022-08-14T11:28:47.018Z,1.15
2022-08-14T11:31:20.022Z,2.50
2022-08-14T11:33:59.332Z,6.30
2022-08-14T11:37:02.107Z,1.42
2022-08-14T11:39:22.977Z,5.90
2022-08-14T11:42:07.676Z,2.90
2022-08-14T11:44:53.628Z,1.75
2022-08-14T11:47:24.746Z,1.75
2022-08-14T11:49:51.968Z,6.68
2022-08-14T11:52:19.367Z,2.35
2022-08-14T11:54:58.101Z,3.45
2022-08-14T11:57:25.307Z,1.45
2022-08-14T12:00:08.492Z,4.00
2022-08-14T12:03:00.441Z,2.67
2022-08-14T12:05:50.131Z,1.95
2022-08-14T12:08:18.131Z,2.90
2022-08-14T12:10:58.599Z,1.60
2022-08-14T12:13:32.573Z,1.85
2022-08-14T12:16:11.249Z,1.80
2022-08-14T12:18:49.710Z,1.77
2022-08-14T12:21:25.634Z,3.50
2022-08-14T12:24:05.981Z,2.35
2022-08-14T12:26:40.612Z,4.53
2022-08-14T12:29:16.209Z,1.92
2022-08-14T12:31:51.593Z,3.03
2022-08-14T12:34:24.197Z,3.47
2022-08-14T12:37:04.103Z,3.10
2022-08-14T12:39:31.234Z,2.22
2022-08-14T12:42:08.066Z,2.13
2022-08-14T12:44:42.663Z,2.65
2022-08-14T12:47:17.089Z,3.60
2022-08-14T12:49:58.388Z,1.98
2022-08-14T12:52:30.713Z,3.72
2022-08-14T12:55:17.186Z,3.17
2022-08-14T12:57:49.474Z,3.53
2022-08-14T13:00:24.024Z,1.50
2022-08-14T13:02:54.878Z,2.05
2022-08-14T13:05:27.461Z,5.82
2022-08-14T13:07:57.207Z,2.25
2022-08-14T13:10:47.384Z,4.43
2022-08-14T13:13:19.683Z,2.67
2022-08-14T13:15:57.354Z,2.15
2022-08-14T13:18:29.196Z,2.30
2022-08-14T13:21:02.188Z,4.30
2022-08-14T13:23:36.417Z,3.53
2022-08-14T13:26:04.982Z,2.65
2022-08-14T13:28:41.249Z,1.65
2022-08-14T13:31:24.148Z,2.65
2022-08-14T13:34:01.233Z,2.72
2022-08-14T13:36:54.520Z,3.10
2022-08-14T13:39:16.779Z,1.73
2022-08-14T13:41:45.099Z,2.03
2022-08-14T13:44:21.875Z,3.63
2022-08-14T13:46:51.181Z,2.65
2022-08-14T13:49:19.569Z,2.10
2022-08-14T13:51:49.459Z,3.72
2022-08-14T13:54:21.177Z,1.85
2022-08-14T13:56:49.620Z,1.75
2022-08-14T13:59:20.625Z,3.15
2022-08-14T14:02:08.800Z,2.70
2022-08-14T14:04:49.242Z,2.35
2022-08-14T14:07:21.716Z,1.85
2022-08-14T14:09:57.422Z,1.60
2022-08-14T14:12:36.614Z,1.85
2022-08-14T14:15:11.600Z,2.95
2022-08-14T14:17:40.336Z,2.17
2022-08-14T14:20:15.131Z,1.83
2022-08-14T14:23:03.457Z,2.53
2022-08-14T14:25:48.544Z,3.13
2022-08-14T14:30:56.995Z,1.67
2022-08-14T14:36:20.936Z,2.72
2022-08-14T14:38:56.338Z,1.67
2022-08-14T14:41:25.606Z,3.05
2022-08-14T14:43:54.806Z,3.85
2022-08-14T14:46:36.014Z,2.47
2022-08-14T14:49:06.728Z,2.20
2022-08-14T14:51:41.754Z,2.85
2022-08-14T14:54:12.983Z,2.13
2022-08-14T14:56:50.687Z,5.53
2022-08-14T14:59:20.292Z,3.00
2022-08-14T15:01:53.102Z,3.03
2022-08-14T15:04:22.043Z,1.80
2022-08-14T15:06:50.138Z,5.35
2022-08-14T15:09:20.476Z,3.67
2022-08-14T15:11:50.724Z,3.10
2022-08-14T15:14:55.246Z,2.65
2022-08-14T15:17:06.523Z,1.73
2022-08-14T15:19:33.759Z,3.03
2022-08-14T15:22:03.663Z,1.80
2022-08-14T15:24:30.713Z,2.95
2022-08-14T15:27:06.746Z,2.92
2022-08-14T15:29:43.360Z,2.53
2022-08-14T15:32:13.467Z,1.52
2022-08-14T15:34:51.670Z,3.97
2022-08-14T15:37:22.184Z,2.17
2022-08-14T15:39:52.775Z,5.63
2022-08-14T15:42:23.031Z,17.17
2022-08-14T15:44:58.586Z,28.30
2022-08-14T15:47:30.654Z,14.80
2022-08-14T15:50:00.545Z,8.13
2022-08-14T15:52:34.814Z,7.05
2022-08-14T15:55:08.144Z,5.13
2022-08-14T15:57:36.676Z,1.92
2022-08-14T16:00:40.144Z,3.63
2022-08-14T16:03:12.651Z,2.72
2022-08-14T16:08:29.573Z,3.95
2022-08-14T16:10:58.366Z,3.15
2022-08-14T16:13:42.210Z,1.85
2022-08-14T16:16:47.163Z,1.95
2022-08-14T16:19:01.044Z,2.50
2022-08-14T16:21:29.545Z,1.95
2022-08-14T16:24:00.592Z,3.22
2022-08-14T16:26:29.845Z,3.25
2022-08-14T16:29:09.336Z,2.95
2022-08-14T16:31:36.846Z,2.35
2022-08-14T16:34:44.692Z,3.40
2022-08-14T16:36:57.224Z,4.57
2022-08-14T16:39:24.881Z,4.25
2022-08-14T16:41:58.153Z,4.97
2022-08-14T16:44:41.069Z,3.75
2022-08-14T16:47:13.825Z,2.55
2022-08-14T16:50:04.646Z,5.40
2022-08-14T16:52:44.812Z,3.83
2022-08-14T16:55:13.928Z,2.15
2022-08-14T16:57:54.439Z,6.70
2022-08-14T17:00:28.743Z,2.30
2022-08-14T17:03:13.119Z,2.58
2022-08-14T17:05:43.402Z,2.50
2022-08-14T17:08:33.450Z,5.95
2022-08-14T17:11:09.790Z,4.80
2022-08-14T17:13:57.760Z,2.97
2022-08-14T17:16:26.528Z,3.17
2022-08-14T17:19:00.519Z,3.42
2022-08-14T17:21:31.848Z,2.75
2022-08-14T17:24:57.174Z,4.03
2022-08-14T17:26:55.427Z,6.45
2022-08-14T17:29:44.827Z,5.03
2022-08-14T17:32:29.643Z,6.15
2022-08-14T17:35:16.939Z,4.82
2022-08-14T17:37:55.819Z,4.07
2022-08-14T17:40:29.341Z,2.75
2022-08-14T17:45:47.112Z,5.85
2022-08-14T17:49:14.660Z,2.88
2022-08-14T17:51:23.374Z,6.50
2022-08-14T17:54:01.467Z,2.72
2022-08-14T17:56:34.236Z,2.20
2022-08-14T17:59:06.280Z,4.03
2022-08-14T18:01:45.840Z,3.00
2022-08-14T18:04:28.345Z,8.35
2022-08-14T18:07:09.947Z,10.85
2022-08-14T18:09:58.592Z,2.65
2022-08-14T18:12:36.865Z,3.90
2022-08-14T18:15:16.129Z,3.38
2022-08-14T18:17:53.106Z,4.95
2022-08-14T18:21:41.708Z,5.00
2022-08-14T18:23:13.694Z,3.72
2022-08-14T18:25:51.614Z,3.75
2022-08-14T18:28:48.416Z,2.70
2022-08-14T18:31:20.650Z,3.47
2022-08-14T18:34:11.810Z,2.13
2022-08-14T18:36:57.471Z,3.30
2022-08-14T18:40:02.267Z,3.22
2022-08-14T18:42:24.385Z,2.67
2022-08-14T18:45:01.228Z,3.70
2022-08-14T18:47:56.638Z,3.15
2022-08-14T18:50:32.270Z,2.85
2022-08-14T18:53:09.112Z,5.40
2022-08-14T18:55:52.864Z,2.00
2022-08-14T18:58:30.445Z,4.00
2022-08-14T19:01:01.237Z,4.10
2022-08-14T19:03:34.337Z,3.47
2022-08-14T19:06:11.021Z,3.55
2022-08-14T19:08:49.392Z,5.35
2022-08-14T19:11:32.159Z,3.38
2022-08-14T19:14:05.285Z,3.92
2022-08-14T19:16:35.101Z,4.43
2022-08-14T19:19:06.789Z,3.95
2022-08-14T19:21:36.264Z,5.40
2022-08-14T19:24:29.737Z,5.18
2022-08-14T19:27:19.711Z,3.83
2022-08-14T19:30:19.807Z,4.20
2022-08-14T19:32:57.245Z,2.80
2022-08-14T19:35:49.726Z,6.43
2022-08-14T19:38:47.744Z,6.82
2022-08-14T19:41:18.626Z,4.80
2022-08-14T19:43:56.069Z,4.70
2022-08-14T19:46:38.414Z,4.70
2022-08-14T19:49:21.324Z,10.65
2022-08-14T19:51:50.566Z,11.45
2022-08-14T19:54:18.280Z,9.32
2022-08-14T19:56:46.411Z,11.90
2022-08-14T19:59:19.718Z,9.82
2022-08-14T20:01:52.134Z,12.13
2022-08-14T20:04:47.221Z,19.40
2022-08-14T20:08:00.260Z,9.93
2022-08-14T20:11:02.962Z,10.82
2022-08-14T20:13:32.130Z,7.72
2022-08-14T20:16:21.301Z,7.57
2022-08-14T20:19:29.143Z,7.30
2022-08-14T20:22:35.163Z,5.47
2022-08-14T20:24:54.113Z,7.07
2022-08-14T20:27:40.924Z,3.80
2022-08-14T20:30:34.143Z,5.00
2022-08-14T20:33:07.667Z,5.25
2022-08-14T20:35:39.830Z,5.45
2022-08-14T20:38:30.570Z,5.38
2022-08-14T20:41:00.230Z,7.45
2022-08-14T20:43:51.217Z,6.45
2022-08-14T20:46:29.389Z,8.80
2022-08-14T20:49:18.617Z,6.13
2022-08-14T20:52:00.242Z,6.85
2022-08-14T20:54:36.266Z,5.40
2022-08-14T20:57:13.872Z,7.07
2022-08-14T20:59:47.141Z,7.07
2022-08-14T21:02:34.301Z,5.53
2022-08-14T21:05:16.890Z,5.60
2022-08-14T21:07:50.266Z,4.97
2022-08-14T21:10:36.199Z,5.57
2022-08-14T21:14:08.602Z,6.70
2022-08-14T21:15:57.168Z,6.45
2022-08-14T21:18:34.722Z,5.35
2022-08-14T21:21:07.953Z,6.95
2022-08-14T21:23:54.137Z,6.88
2022-08-14T21:26:51.440Z,5.43
2022-08-14T21:29:14.367Z,5.63
2022-08-14T21:31:42.451Z,8.60
2022-08-14T21:34:31.418Z,7.43
2022-08-14T21:37:09.016Z,6.63
2022-08-14T21:39:37.922Z,6.40
2022-08-14T21:42:06.228Z,9.77
2022-08-14T21:44:42.772Z,5.13
2022-08-14T21:47:11.015Z,6.60
2022-08-14T21:49:38.892Z,7.78
2022-08-14T21:52:49.641Z,5.22
2022-08-14T21:55:08.577Z,4.97
2022-08-14T21:58:04.090Z,13.25
2022-08-14T22:00:39.521Z,6.15
2022-08-14T22:03:19.148Z,6.53
2022-08-14T22:05:52.994Z,8.45
2022-08-14T22:08:22.541Z,5.95
2022-08-14T22:10:55.875Z,7.35
2022-08-14T22:13:26.670Z,6.78
2022-08-14T22:15:59.695Z,8.23
2022-08-14T22:18:30.027Z,5.93
2022-08-14T22:20:57.469Z,7.90
2022-08-14T22:23:25.808Z,5.78
2022-08-14T22:25:54.690Z,13.45
2022-08-14T22:28:32.948Z,7.00
2022-08-14T22:31:10.181Z,6.55
2022-08-14T22:33:38.973Z,5.45
2022-08-14T22:36:26.262Z,6.78
2022-08-14T22:38:54.494Z,7.03
2022-08-14T22:41:27.620Z,7.65
2022-08-14T22:44:19.809Z,7.90
2022-08-14T22:46:47.996Z,9.85
2022-08-14T22:50:28.736Z,5.63
2022-08-14T22:52:32.505Z,7.25
2022-08-14T22:54:56.124Z,7.32
2022-08-14T22:57:27.050Z,17.25
2022-08-14T23:00:12.075Z,8.50
2022-08-14T23:02:42.169Z,7.22
2022-08-14T23:05:15.175Z,7.90
2022-08-14T23:08:59.797Z,8.50
2022-08-14T23:10:32.617Z,9.95
2022-08-14T23:13:04.160Z,10.13
2022-08-14T23:15:32.587Z,6.80
2022-08-14T23:18:03.289Z,7.40
2022-08-14T23:20:31.889Z,8.93
2022-08-14T23:22:58.999Z,6.53
2022-08-14T23:25:57.591Z,6.45
2022-08-14T23:28:33.309Z,4.72
2022-08-14T23:31:12.496Z,7.28
2022-08-14T23:33:45.962Z,6.93
2022-08-14T23:36:28.242Z,4.97
2022-08-14T23:39:00.321Z,9.25
2022-08-14T23:41:27.498Z,7.38
2022-08-14T23:44:15.052Z,4.43
2022-08-14T23:46:44.068Z,5.15
2022-08-14T23:49:12.645Z,8.00
2022-08-14T23:51:39.702Z,4.70
2022-08-14T23:54:48.238Z,7.03
2022-08-14T23:57:02.466Z,6.07
2022-08-14T23:59:31.714Z,4.03
